Time;durP1;ratioP1;P1;durP2;ratioP2;P2;SDS_P1;SDS_P2;PMS_P1;PMS_P2;Temp;Humidity;BMP_temperature;BMP_pressure;BME280_temperature;BME280_humidity;BME280_pressure;Samples;Min_cycle;Max_cycle;Signal;HPM_P1;HPM_P2
2022/07/25 00:00:21;;;;;;;2.37;1.27;;;24.00;95.00;;;;;;6675238;89;20240;-78
2022/07/25 00:10:21;;;;;;;2.55;1.35;;;23.70;96.30;;;;;;6666333;89;20196;-78
2022/07/25 00:20:22;;;;;;;3.63;1.50;;;23.40;98.60;;;;;;6673687;89;21003;-78
2022/07/25 00:30:23;;;;;;;2.30;1.37;;;23.20;99.90;;;;;;6672323;89;20579;-79
2022/07/25 00:40:23;;;;;;;3.37;1.83;;;23.10;99.90;;;;;;6668187;89;20295;-79
2022/07/25 00:50:24;;;;;;;2.80;1.65;;;22.90;99.90;;;;;;6661562;89;20232;-78
2022/07/25 01:00:24;;;;;;;2.67;1.30;;;22.80;99.90;;;;;;6679154;88;20195;-78
2022/07/25 01:10:25;;;;;;;2.70;1.45;;;22.70;99.90;;;;;;6684722;88;20309;-78
2022/07/25 01:20:27;;;;;;;2.12;1.48;;;22.70;99.90;;;;;;6681477;88;20831;-79
2022/07/25 01:30:28;;;;;;;3.00;1.40;;;22.60;99.90;;;;;;6668677;89;20300;-78
2022/07/25 01:40:28;;;;;;;2.60;1.62;;;22.70;99.90;;;;;;6681831;88;20220;-78
2022/07/25 01:50:29;;;;;;;3.50;1.48;;;22.80;99.90;;;;;;6672633;88;20203;-78
2022/07/25 02:11:31;;;;;;;3.17;1.80;;;23.10;99.90;;;;;;6654329;89;20189;-78
2022/07/25 02:21:32;;;;;;;3.47;1.58;;;23.00;99.90;;;;;;6649798;89;20208;-80
2022/07/25 02:31:33;;;;;;;2.67;1.70;;;23.00;99.90;;;;;;6652412;89;20651;-78
2022/07/25 02:41:33;;;;;;;2.75;1.50;;;23.10;99.90;;;;;;6652748;89;20198;-78
2022/07/25 02:51:34;;;;;;;2.15;1.33;;;23.00;99.90;;;;;;6658901;89;20225;-78
2022/07/25 03:01:34;;;;;;;2.95;1.40;;;23.10;99.90;;;;;;6660523;89;20196;-78
2022/07/25 03:11:35;;;;;;;2.95;1.73;;;23.20;99.90;;;;;;6657010;89;20275;-78
2022/07/25 03:21:39;;;;;;;4.55;1.45;;;23.00;99.90;;;;;;6656864;89;20254;-77
2022/07/25 03:31:39;;;;;;;;;;;23.00;99.90;;;;;;6655329;89;20293;-77
2022/07/25 03:41:40;;;;;;;2.45;1.40;;;23.00;99.90;;;;;;6657436;89;20080;-77
2022/07/25 03:51:41;;;;;;;3.35;1.77;;;23.10;99.90;;;;;;6656172;89;20291;-78
2022/07/25 04:01:43;;;;;;;1.73;1.05;;;22.90;99.90;;;;;;6653074;89;20217;-79
2022/07/25 04:11:44;;;;;;;2.30;1.55;;;22.80;99.90;;;;;;6649697;89;20313;-78
2022/07/25 04:21:44;;;;;;;2.90;1.48;;;22.70;99.90;;;;;;6654551;89;20696;-77
2022/07/25 04:31:45;;;;;;;2.87;1.73;;;22.70;99.90;;;;;;6655258;89;20651;-77
2022/07/25 04:41:45;;;;;;;2.55;1.33;;;22.80;99.90;;;;;;6653514;89;20203;-78
2022/07/25 04:51:46;;;;;;;1.80;1.00;;;22.80;99.90;;;;;;6653887;89;20220;-79
2022/07/25 05:01:46;;;;;;;2.70;1.50;;;22.80;99.90;;;;;;6652733;89;20703;-78
2022/07/25 05:11:47;;;;;;;2.33;1.40;;;23.00;99.90;;;;;;6653702;89;20222;-79
2022/07/25 05:21:47;;;;;;;2.35;1.33;;;23.20;99.90;;;;;;6652632;89;20220;-77
2022/07/25 05:31:48;;;;;;;2.45;1.35;;;23.40;99.90;;;;;;6656475;89;20191;-79
2022/07/25 05:41:49;;;;;;;3.20;1.37;;;23.60;99.90;;;;;;6656677;89;20333;-79
2022/07/25 05:51:49;;;;;;;2.00;1.10;;;23.80;99.90;;;;;;6655741;89;20224;-81
2022/07/25 06:01:50;;;;;;;1.77;1.03;;;24.10;99.90;;;;;;6654952;89;20224;-80
2022/07/25 06:11:51;;;;;;;2.60;1.60;;;24.50;99.90;;;;;;6659157;89;20531;-80
2022/07/25 06:21:51;;;;;;;2.55;1.52;;;25.10;99.80;;;;;;6657116;89;20187;-77
2022/07/25 06:31:52;;;;;;;2.25;1.60;;;25.80;99.50;;;;;;6654235;89;20659;-79
2022/07/25 06:41:52;;;;;;;2.15;1.35;;;26.20;98.10;;;;;;6660540;89;20244;-78
2022/07/25 06:51:53;;;;;;;3.67;1.60;;;26.20;98.50;;;;;;6652987;89;20274;-80
2022/07/25 07:01:53;;;;;;;1.90;1.20;;;27.10;97.80;;;;;;6651135;89;20672;-79
2022/07/25 07:11:54;;;;;;;2.70;1.75;;;27.60;95.10;;;;;;6656737;89;20212;-81
2022/07/25 07:21:54;;;;;;;2.10;1.50;;;28.60;93.70;;;;;;6655180;89;20677;-81
2022/07/25 07:31:55;;;;;;;2.22;1.40;;;28.90;93.10;;;;;;6660540;89;20415;-81
2022/07/25 07:41:56;;;;;;;2.55;1.67;;;29.00;92.50;;;;;;6657556;89;20217;-81
2022/07/25 07:51:56;;;;;;;2.33;1.50;;;28.70;93.20;;;;;;6661607;89;20227;-81
2022/07/25 08:12:59;;;;;;;2.50;1.55;;;28.50;93.20;;;;;;6694106;88;20226;-78
2022/07/25 08:23:00;;;;;;;3.40;1.60;;;29.10;93.00;;;;;;6694429;88;20209;-78
2022/07/25 08:33:02;;;;;;;2.47;1.50;;;29.10;92.30;;;;;;6689811;88;20236;-78
2022/07/25 08:43:03;;;;;;;1.83;1.23;;;29.10;92.90;;;;;;6703148;88;20501;-78
2022/07/25 08:53:04;;;;;;;2.00;1.40;;;29.10;92.50;;;;;;6700535;88;20388;-78
2022/07/25 09:03:05;;;;;;;2.45;1.40;;;29.20;92.30;;;;;;6684481;88;20319;-78
2022/07/25 09:13:12;;;;;;;2.25;1.58;;;29.60;92.60;;;;;;6690965;88;20640;-78
2022/07/25 09:23:31;;;;;;;2.55;1.52;;;30.80;90.40;;;;;;6692235;88;20723;-78
2022/07/25 09:33:32;;;;;;;2.60;1.70;;;31.00;88.80;;;;;;6697643;88;20240;-78
2022/07/25 09:43:36;;;;;;;2.40;1.67;;;32.40;84.60;;;;;;6686714;88;20189;-78
2022/07/25 09:53:36;;;;;;;2.20;1.60;;;33.40;79.50;;;;;;6693051;88;20256;-78
2022/07/25 10:04:04;;;;;;;2.20;1.50;;;32.80;77.90;;;;;;6690794;88;20330;-78
2022/07/25 10:14:10;;;;;;;2.35;1.67;;;31.90;79.40;;;;;;6688651;88;20303;-78
2022/07/25 10:24:11;;;;;;;2.37;1.45;;;31.40;81.00;;;;;;6686853;88;20702;-77
2022/07/25 10:34:14;;;;;;;2.20;1.60;;;30.70;82.10;;;;;;6678983;88;20283;-78
2022/07/25 10:44:15;;;;;;;2.65;1.70;;;30.00;83.20;;;;;;6688491;88;20207;-78
2022/07/25 10:54:17;;;;;;;2.95;1.95;;;29.20;90.10;;;;;;6679902;88;20322;-77
2022/07/25 11:04:17;;;;;;;2.75;1.75;;;28.10;95.50;;;;;;6691549;88;20215;-77
2022/07/25 11:14:21;;;;;;;2.08;1.40;;;27.20;99.90;;;;;;6693419;88;20682;-77
2022/07/25 11:24:35;;;;;;;2.90;1.75;;;26.90;99.90;;;;;;6689113;88;20349;-77
2022/07/25 11:34:40;;;;;;;3.50;1.90;;;27.10;99.90;;;;;;6700514;88;20222;-77
2022/07/25 11:44:49;;;;;;;2.55;1.80;;;27.30;99.90;;;;;;6692171;88;20199;-77
2022/07/25 11:54:57;;;;;;;2.45;1.55;;;28.30;98.50;;;;;;6689508;88;20299;-77
2022/07/25 12:05:04;;;;;;;2.35;1.58;;;29.10;95.60;;;;;;6695096;88;20217;-78
2022/07/25 12:15:05;;;;;;;2.08;1.50;;;29.40;94.10;;;;;;6685737;88;20269;-79
2022/07/25 12:25:06;;;;;;;2.93;1.67;;;30.60;92.90;;;;;;6696530;88;20170;-78
2022/07/25 12:35:09;;;;;;;2.20;1.37;;;31.10;91.10;;;;;;6700896;88;20209;-79
2022/07/25 12:45:11;;;;;;;2.25;1.40;;;31.70;90.40;;;;;;6684005;88;20215;-78
2022/07/25 12:55:14;;;;;;;1.70;1.10;;;32.30;85.70;;;;;;6691074;88;20287;-78
2022/07/25 13:05:14;;;;;;;2.00;1.27;;;32.60;82.80;;;;;;6694869;88;20215;-78
2022/07/25 13:15:16;;;;;;;3.12;1.40;;;31.80;80.80;;;;;;6686232;88;20715;-79
2022/07/25 13:25:17;;;;;;;2.53;1.05;;;31.20;83.80;;;;;;6687194;88;20177;-79
2022/07/25 13:35:18;;;;;;;2.53;1.30;;;31.60;82.40;;;;;;6696054;88;20198;-78
2022/07/25 13:45:35;;;;;;;2.08;1.10;;;32.20;81.60;;;;;;6695824;88;20231;-79
2022/07/25 13:55:36;;;;;;;2.50;1.30;;;33.60;79.70;;;;;;6698048;88;20191;-78
2022/07/25 14:05:38;;;;;;;1.25;0.90;;;32.90;79.70;;;;;;6681009;88;20216;-78
2022/07/25 14:15:39;;;;;;;1.27;0.80;;;32.60;80.30;;;;;;6701858;88;20186;-78
2022/07/25 14:25:39;;;;;;;1.33;0.85;;;31.80;81.40;;;;;;6684451;88;20309;-78
2022/07/25 14:35:40;;;;;;;1.95;1.20;;;32.30;80.20;;;;;;6684777;88;20236;-77
2022/07/25 14:45:40;;;;;;;1.57;0.70;;;32.60;79.60;;;;;;6691591;88;20189;-76
2022/07/25 14:55:41;;;;;;;1.10;0.70;;;32.70;79.50;;;;;;6681195;88;20211;-76
2022/07/25 15:05:42;;;;;;;1.27;0.80;;;30.60;81.70;;;;;;6685698;88;20297;-77
2022/07/25 15:15:42;;;;;;;1.12;0.70;;;29.30;82.80;;;;;;6698167;88;20530;-77
2022/07/25 15:25:43;;;;;;;1.75;0.88;;;29.30;83.20;;;;;;6684367;88;20739;-77
2022/07/25 15:35:45;;;;;;;1.30;0.70;;;28.80;84.80;;;;;;6689834;88;20203;-77
2022/07/25 15:45:46;;;;;;;1.43;0.97;;;28.30;87.30;;;;;;6684032;88;20210;-77
2022/07/25 15:55:47;;;;;;;1.37;0.80;;;27.10;90.50;;;;;;6700765;88;20198;-77
2022/07/25 16:05:47;;;;;;;0.82;0.50;;;27.00;91.20;;;;;;6686438;88;20325;-77
2022/07/25 16:15:48;;;;;;;1.00;0.62;;;27.00;91.50;;;;;;6692460;88;20690;-77
2022/07/25 16:25:48;;;;;;;0.90;0.50;;;26.40;92.70;;;;;;6685860;88;20269;-77
2022/07/25 16:35:49;;;;;;;1.00;0.70;;;26.20;93.50;;;;;;6687379;88;20291;-77
2022/07/25 16:45:49;;;;;;;0.90;0.50;;;25.90;94.60;;;;;;6687036;88;20295;-77
2022/07/25 16:55:50;;;;;;;1.20;0.70;;;26.10;94.50;;;;;;6696876;88;20681;-77
2022/07/25 17:05:52;;;;;;;1.60;0.60;;;26.00;94.40;;;;;;6684486;88;20186;-77
2022/07/25 17:15:53;;;;;;;1.10;0.60;;;26.30;94.20;;;;;;6677684;88;20185;-76
2022/07/25 17:25:54;;;;;;;1.03;0.60;;;26.50;93.80;;;;;;6694347;88;20190;-77
2022/07/25 17:35:54;;;;;;;1.25;0.70;;;26.50;93.00;;;;;;6695584;88;20517;-77
2022/07/25 17:45:55;;;;;;;1.20;0.80;;;26.10;93.70;;;;;;6691113;88;20182;-76
2022/07/25 17:56:09;;;;;;;1.23;0.80;;;25.90;93.20;;;;;;6690497;88;20576;-78
2022/07/25 18:06:10;;;;;;;1.58;0.60;;;25.80;92.50;;;;;;6697858;88;20301;-77
2022/07/25 18:16:10;;;;;;;1.02;0.60;;;26.00;91.90;;;;;;6699089;88;20247;-78
2022/07/25 18:26:11;;;;;;;1.08;0.60;;;26.20;91.20;;;;;;6696558;88;20223;-78
2022/07/25 18:36:11;;;;;;;1.37;0.77;;;25.60;91.80;;;;;;6697589;88;20202;-78
2022/07/25 18:46:12;;;;;;;2.25;0.90;;;25.30;92.50;;;;;;6691110;88;20236;-78
2022/07/25 18:56:12;;;;;;;0.90;0.60;;;24.80;93.60;;;;;;6694765;88;20216;-79
2022/07/25 19:06:13;;;;;;;2.45;0.60;;;24.70;94.30;;;;;;6693354;88;20210;-79
2022/07/25 19:16:14;;;;;;;1.20;0.70;;;24.40;94.90;;;;;;6687830;88;20334;-78
2022/07/25 19:26:15;;;;;;;2.00;0.75;;;24.20;95.20;;;;;;6689861;88;20216;-78
2022/07/25 19:36:16;;;;;;;1.10;0.45;;;24.00;94.50;;;;;;6693632;88;20225;-78
2022/07/25 19:46:17;;;;;;;0.50;0.30;;;23.70;94.60;;;;;;6693339;88;20182;-78
2022/07/25 19:56:17;;;;;;;1.08;0.40;;;23.50;95.00;;;;;;6689872;88;20224;-78
2022/07/25 20:06:21;;;;;;;1.02;0.50;;;23.30;95.10;;;;;;6685439;88;20195;-79
2022/07/25 20:16:35;;;;;;;2.07;0.57;;;23.00;95.40;;;;;;6693992;88;20678;-78
2022/07/25 20:26:35;;;;;;;0.60;0.30;;;22.90;95.60;;;;;;6691748;88;20187;-78
2022/07/25 20:36:36;;;;;;;0.93;0.55;;;22.70;95.70;;;;;;6686476;88;20651;-78
2022/07/25 20:46:37;;;;;;;1.98;0.40;;;22.60;95.90;;;;;;6695514;88;20654;-78
2022/07/25 20:56:38;;;;;;;1.17;0.30;;;22.40;96.30;;;;;;6703508;88;20246;-78
2022/07/25 21:06:39;;;;;;;0.60;0.30;;;22.30;96.50;;;;;;6705530;88;20668;-78
2022/07/25 21:16:39;;;;;;;0.70;0.30;;;22.00;97.30;;;;;;6696695;88;20521;-78
2022/07/25 21:26:40;;;;;;;0.90;0.40;;;21.90;97.90;;;;;;6695567;88;20229;-78
2022/07/25 21:36:40;;;;;;;0.45;0.25;;;21.80;97.60;;;;;;6698713;88;20181;-78
2022/07/25 21:46:41;;;;;;;0.60;0.30;;;21.80;97.70;;;;;;6700762;88;20737;-78
2022/07/25 21:56:41;;;;;;;0.82;0.37;;;21.70;97.90;;;;;;6693957;88;20231;-78
2022/07/25 22:06:42;;;;;;;0.85;0.32;;;21.70;97.70;;;;;;6707362;88;20194;-78
2022/07/25 22:16:43;;;;;;;1.30;0.50;;;21.70;97.50;;;;;;6715285;88;20224;-78
2022/07/25 22:26:43;;;;;;;1.23;0.30;;;21.50;98.00;;;;;;6690705;88;20236;-78
2022/07/25 22:36:44;;;;;;;0.40;0.20;;;21.40;98.20;;;;;;6695815;88;20530;-78
2022/07/25 22:46:45;;;;;;;1.20;0.30;;;21.50;98.40;;;;;;6687903;88;20202;-78
2022/07/25 22:56:45;;;;;;;0.45;0.20;;;21.50;98.70;;;;;;6697320;88;20190;-79
2022/07/25 23:06:46;;;;;;;0.43;0.20;;;21.50;99.10;;;;;;6688529;88;20238;-78
2022/07/25 23:17:15;;;;;;;0.60;0.30;;;21.40;99.50;;;;;;6688542;88;20209;-78
2022/07/25 23:27:07;;;;;;;0.20;0.10;;;21.30;99.90;;;;;;6694840;88;20544;-78
2022/07/25 23:37:08;;;;;;;0.40;0.10;;;21.00;99.90;;;;;;6699607;88;20190;-78
2022/07/25 23:47:09;;;;;;;0.50;0.20;;;20.80;99.90;;;;;;6680468;88;20192;-78
2022/07/25 23:57:11;;;;;;;0.70;0.30;;;20.70;99.90;;;;;;6691872;88;20283;-78
